Time,TemperatureF,DewpointF,PressureIn,WindDirection,WindDirectionDegrees,WindSpeedMPH,WindSpeedGustMPH,Humidity,HourlyPrecipIn,Conditions,Clouds,dailyrainin,SoftwareType,DateUTC
2013-11-03 00:01:00,46.9,43.2,30.22,North,9,0.0,0.0,87,0.00,,,0.00,WeatherDisplay:10.37,2013-11-03 05:01:00,
2013-11-03 00:06:00,46.7,43.3,30.22,North,9,0.0,0.0,88,0.00,,,0.00,WeatherDisplay:10.37,2013-11-03 05:06:00,
2013-11-03 00:11:00,46.4,43.0,30.22,North,9,0.0,0.0,88,0.00,,,0.00,WeatherDisplay:10.37,2013-11-03 05:11:00,
2013-11-03 00:16:00,46.3,42.9,30.22,North,9,0.0,0.0,88,0.00,,,0.00,WeatherDisplay:10.37,2013-11-03 05:16:00,
2013-11-03 00:21:00,46.3,42.9,30.22,North,9,0.0,0.0,88,0.00,,,0.00,WeatherDisplay:10.37,2013-11-03 05:21:00,
2013-11-03 00:26:00,46.5,43.1,30.23,North,9,0.0,0.0,88,0.00,,,0.00,WeatherDisplay:10.37,2013-11-03 05:26:00,
2013-11-03 00:32:00,46.5,43.1,30.22,North,9,0.0,0.0,88,0.00,,,0.00,WeatherDisplay:10.37,2013-11-03 05:32:00,
2013-11-03 00:37:00,46.5,43.1,30.22,North,9,0.0,0.0,88,0.00,,,0.00,WeatherDisplay:10.37,2013-11-03 05:37:00,
2013-11-03 00:42:00,46.3,42.9,30.22,North,9,0.0,0.0,88,0.00,,,0.00,WeatherDisplay:10.37,2013-11-03 05:42:00,
2013-11-03 00:47:00,46.1,42.7,30.22,North,9,0.0,0.0,88,0.00,,,0.00,WeatherDisplay:10.37,2013-11-03 05:47:00,
2013-11-03 00:52:00,45.8,42.4,30.22,North,9,0.0,0.0,88,0.00,,,0.00,WeatherDisplay:10.37,2013-11-03 05:52:00,
2013-11-03 00:57:00,45.6,42.3,30.23,North,9,0.0,0.0,88,0.00,,,0.00,WeatherDisplay:10.37,2013-11-03 05:57:00,
2013-11-03 01:02:00,45.5,42.2,30.23,North,9,0.0,0.0,88,0.00,,,0.00,WeatherDisplay:10.37,2013-11-03 06:02:00,
2013-11-03 01:07:00,45.4,42.1,30.23,North,9,0.0,0.0,88,0.00,,,0.00,WeatherDisplay:10.37,2013-11-03 06:07:00,
2013-11-03 01:12:00,45.2,41.9,30.23,North,9,0.0,0.0,88,0.00,,,0.00,WeatherDisplay:10.37,2013-11-03 06:12:00,
2013-11-03 01:17:00,45.2,42.2,30.23,North,9,0.0,0.0,89,0.00,,,0.00,WeatherDisplay:10.37,2013-11-03 06:17:00,
2013-11-03 01:22:00,45.3,42.2,30.23,North,9,0.0,0.0,89,0.00,,,0.00,WeatherDisplay:10.37,2013-11-03 06:22:00,
2013-11-03 01:27:00,45.5,42.4,30.23,North,9,0.0,0.0,89,0.00,,,0.00,WeatherDisplay:10.37,2013-11-03 06:27:00,
2013-11-03 01:32:00,45.4,42.3,30.23,North,9,0.0,0.0,89,0.00,,,0.00,WeatherDisplay:10.37,2013-11-03 06:32:00,
2013-11-03 01:37:00,45.2,42.2,30.23,North,9,0.0,0.0,89,0.00,,,0.00,WeatherDisplay:10.37,2013-11-03 06:37:00,
2013-11-03 01:42:00,45.1,42.1,30.22,North,9,0.0,0.0,89,0.00,,,0.00,WeatherDisplay:10.37,2013-11-03 06:42:00,
2013-11-03 01:47:00,45.0,42.0,30.22,North,9,0.0,0.0,89,0.00,,,0.00,WeatherDisplay:10.37,2013-11-03 06:47:00,
2013-11-03 01:52:00,44.9,41.9,30.23,North,9,0.0,0.0,89,0.00,,,0.00,WeatherDisplay:10.37,2013-11-03 06:52:00,
2013-11-03 01:57:00,45.0,42.0,30.22,North,9,0.0,0.0,89,0.00,,,0.00,WeatherDisplay:10.37,2013-11-03 06:57:00,
2013-11-03 01:02:00,44.9,41.9,30.23,North,9,0.0,0.0,89,0.00,,,0.00,WeatherDisplay:10.37,2013-11-03 07:02:00,
2013-11-03 01:07:00,45.0,42.0,30.22,North,9,0.0,0.0,89,0.00,,,0.00,WeatherDisplay:10.37,2013-11-03 07:07:00,
2013-11-03 01:12:00,44.7,41.7,30.22,North,9,0.0,0.0,89,0.00,,,0.00,WeatherDisplay:10.37,2013-11-03 07:12:00,
2013-11-03 01:17:00,44.4,41.4,30.22,North,9,0.0,0.0,89,0.00,,,0.00,WeatherDisplay:10.37,2013-11-03 07:17:00,
2013-11-03 01:22:00,44.2,41.2,30.22,North,9,0.0,0.0,89,0.00,,,0.00,WeatherDisplay:10.37,2013-11-03 07:22:00,
2013-11-03 01:27:00,43.9,40.9,30.23,North,9,0.0,0.0,89,0.00,,,0.00,WeatherDisplay:10.37,2013-11-03 07:27:00,
2013-11-03 01:32:00,43.8,40.8,30.22,North,9,0.0,0.0,89,0.00,,,0.00,WeatherDisplay:10.37,2013-11-03 07:32:00,
2013-11-03 01:37:00,43.7,40.7,30.22,North,9,0.0,0.0,89,0.00,,,0.00,WeatherDisplay:10.37,2013-11-03 07:37:00,
2013-11-03 01:42:00,43.6,40.6,30.23,North,9,0.0,0.0,89,0.00,,,0.00,WeatherDisplay:10.37,2013-11-03 07:42:00,
2013-11-03 01:47:00,43.5,40.5,30.22,North,9,0.0,0.0,89,0.00,,,0.00,WeatherDisplay:10.37,2013-11-03 07:47:00,
2013-11-03 01:52:00,43.7,41.0,30.22,North,9,0.0,0.0,90,0.00,,,0.00,WeatherDisplay:10.37,2013-11-03 07:52:00,
2013-11-03 01:57:00,43.6,40.9,30.22,North,9,0.0,0.0,90,0.00,,,0.00,WeatherDisplay:10.37,2013-11-03 07:57:00,
2013-11-03 02:02:00,43.5,40.8,30.22,North,9,0.0,0.0,90,0.00,,,0.00,WeatherDisplay:10.37,2013-11-03 08:02:00,
2013-11-03 02:07:00,43.3,40.6,30.22,North,9,0.0,0.0,90,0.00,,,0.00,WeatherDisplay:10.37,2013-11-03 08:07:00,
2013-11-03 02:12:00,43.1,40.1,30.22,North,9,0.0,0.0,89,0.00,,,0.00,WeatherDisplay:10.37,2013-11-03 08:12:00,
2013-11-03 02:17:00,43.0,40.3,30.22,North,9,0.0,0.0,90,0.00,,,0.00,WeatherDisplay:10.37,2013-11-03 08:17:00,
2013-11-03 02:22:00,43.0,40.3,30.22,North,9,0.0,0.0,90,0.00,,,0.00,WeatherDisplay:10.37,2013-11-03 08:22:00,
2013-11-03 02:27:00,43.0,40.3,30.22,North,9,0.0,0.0,90,0.00,,,0.00,WeatherDisplay:10.37,2013-11-03 08:27:00,
2013-11-03 02:32:00,42.9,40.2,30.21,North,9,0.0,0.0,90,0.00,,,0.00,WeatherDisplay:10.37,2013-11-03 08:32:00,
2013-11-03 02:37:00,42.9,40.2,30.21,North,9,0.0,0.0,90,0.00,,,0.00,WeatherDisplay:10.37,2013-11-03 08:37:00,
2013-11-03 02:42:00,42.9,40.2,30.21,North,9,0.0,0.0,90,0.00,,,0.00,WeatherDisplay:10.37,2013-11-03 08:42:00,
2013-11-03 02:47:00,42.8,40.1,30.21,North,9,0.0,0.0,90,0.00,,,0.00,WeatherDisplay:10.37,2013-11-03 08:47:00,
2013-11-03 02:52:00,42.9,40.2,30.21,North,9,0.0,0.0,90,0.00,,,0.00,WeatherDisplay:10.37,2013-11-03 08:52:00,
2013-11-03 02:57:00,43.0,40.3,30.21,North,9,0.0,0.0,90,0.00,,,0.00,WeatherDisplay:10.37,2013-11-03 08:57:00,
2013-11-03 03:02:00,42.8,40.1,30.21,North,9,0.0,0.0,90,0.00,,,0.00,WeatherDisplay:10.37,2013-11-03 09:02:00,
2013-11-03 03:07:00,42.7,40.0,30.22,North,9,0.0,0.0,90,0.00,,,0.00,WeatherDisplay:10.37,2013-11-03 09:07:00,
2013-11-03 03:12:00,42.6,39.9,30.22,North,9,0.0,0.0,90,0.00,,,0.00,WeatherDisplay:10.37,2013-11-03 09:12:00,
2013-11-03 03:17:00,42.7,40.0,30.21,North,9,0.0,0.0,90,0.00,,,0.00,WeatherDisplay:10.37,2013-11-03 09:17:00,
2013-11-03 03:22:00,42.7,40.0,30.21,North,9,0.0,0.0,90,0.00,,,0.00,WeatherDisplay:10.37,2013-11-03 09:22:00,
2013-11-03 03:27:00,42.5,39.8,30.20,North,9,0.0,0.0,90,0.00,,,0.00,WeatherDisplay:10.37,2013-11-03 09:27:00,
2013-11-03 03:32:00,42.4,39.7,30.21,North,9,0.0,0.0,90,0.00,,,0.00,WeatherDisplay:10.37,2013-11-03 09:32:00,
2013-11-03 03:37:00,42.4,39.7,30.20,North,9,0.0,0.0,90,0.00,,,0.00,WeatherDisplay:10.37,2013-11-03 09:37:00,
2013-11-03 03:42:00,42.4,39.7,30.20,North,9,0.0,0.0,90,0.00,,,0.00,WeatherDisplay:10.37,2013-11-03 09:42:00,
2013-11-03 03:47:00,42.5,39.8,30.20,North,9,0.0,0.0,90,0.00,,,0.00,WeatherDisplay:10.37,2013-11-03 09:47:00,
2013-11-03 03:52:00,42.4,39.7,30.20,North,9,0.0,0.0,90,0.00,,,0.00,WeatherDisplay:10.37,2013-11-03 09:52:00,
2013-11-03 03:57:00,42.3,39.6,30.20,North,9,0.0,0.0,90,0.00,,,0.00,WeatherDisplay:10.37,2013-11-03 09:57:00,
2013-11-03 04:02:00,42.2,39.5,30.20,North,9,0.0,0.0,90,0.00,,,0.00,WeatherDisplay:10.37,2013-11-03 10:02:00,
2013-11-03 04:07:00,42.0,39.3,30.20,North,9,0.0,0.0,90,0.00,,,0.00,WeatherDisplay:10.37,2013-11-03 10:07:00,
2013-11-03 04:12:00,41.9,39.2,30.20,North,9,0.0,0.0,90,0.00,,,0.00,WeatherDisplay:10.37,2013-11-03 10:12:00,
2013-11-03 04:17:00,41.9,39.2,30.20,North,9,0.0,0.0,90,0.00,,,0.00,WeatherDisplay:10.37,2013-11-03 10:17:00,
2013-11-03 04:22:00,41.9,39.2,30.20,North,9,0.0,0.0,90,0.00,,,0.00,WeatherDisplay:10.37,2013-11-03 10:22:00,
2013-11-03 04:27:00,41.8,39.1,30.20,North,9,0.0,0.0,90,0.00,,,0.00,WeatherDisplay:10.37,2013-11-03 10:27:00,
2013-11-03 04:32:00,41.8,39.1,30.20,North,9,0.0,0.0,90,0.00,,,0.00,WeatherDisplay:10.37,2013-11-03 10:32:00,
2013-11-03 04:37:00,41.6,38.9,30.20,North,9,0.0,0.0,90,0.00,,,0.00,WeatherDisplay:10.37,2013-11-03 10:37:00,
2013-11-03 04:42:00,41.5,38.8,30.20,North,9,0.0,0.0,90,0.00,,,0.00,WeatherDisplay:10.37,2013-11-03 10:42:00,
2013-11-03 04:47:00,41.6,38.9,30.20,North,9,0.0,0.0,90,0.00,,,0.00,WeatherDisplay:10.37,2013-11-03 10:47:00,
2013-11-03 04:52:00,41.9,39.5,30.20,North,9,0.0,0.0,91,0.00,,,0.00,WeatherDisplay:10.37,2013-11-03 10:52:00,
2013-11-03 04:57:00,42.3,39.9,30.21,North,9,0.0,0.0,91,0.00,,,0.00,WeatherDisplay:10.37,2013-11-03 10:57:00,
2013-11-03 05:02:00,42.3,39.9,30.21,North,9,0.0,0.0,91,0.00,,,0.00,WeatherDisplay:10.37,2013-11-03 11:02:00,
2013-11-03 05:07:00,42.2,39.8,30.21,North,9,0.0,0.0,91,0.00,,,0.00,WeatherDisplay:10.37,2013-11-03 11:07:00,
2013-11-03 05:12:00,42.0,39.6,30.20,North,9,0.0,0.0,91,0.00,,,0.00,WeatherDisplay:10.37,2013-11-03 11:12:00,
2013-11-03 05:17:00,41.9,39.5,30.21,North,9,0.0,0.0,91,0.00,,,0.00,WeatherDisplay:10.37,2013-11-03 11:17:00,
2013-11-03 05:22:00,41.7,39.0,30.21,North,9,0.0,0.0,90,0.00,,,0.00,WeatherDisplay:10.37,2013-11-03 11:22:00,
2013-11-03 05:27:00,41.4,38.7,30.21,North,9,0.0,0.0,90,0.00,,,0.00,WeatherDisplay:10.37,2013-11-03 11:27:00,
2013-11-03 05:32:00,41.1,38.4,30.21,North,9,0.0,0.0,90,0.00,,,0.00,WeatherDisplay:10.37,2013-11-03 11:32:00,
2013-11-03 05:37:00,40.9,38.2,30.21,North,9,0.0,0.0,90,0.00,,,0.00,WeatherDisplay:10.37,2013-11-03 11:37:00,
2013-11-03 05:42:00,41.0,38.3,30.21,North,9,0.0,0.0,90,0.00,,,0.00,WeatherDisplay:10.37,2013-11-03 11:42:00,
2013-11-03 05:47:00,41.1,38.4,30.21,North,9,0.0,0.0,90,0.00,,,0.00,WeatherDisplay:10.37,2013-11-03 11:47:00,
2013-11-03 05:52:00,41.2,38.8,30.21,North,9,0.0,0.0,91,0.00,,,0.00,WeatherDisplay:10.37,2013-11-03 11:52:00,
2013-11-03 05:57:00,41.3,38.6,30.21,North,9,0.0,0.0,90,0.00,,,0.00,WeatherDisplay:10.37,2013-11-03 11:57:00,
2013-11-03 06:02:00,41.2,38.8,30.21,North,9,0.0,0.0,91,0.00,,,0.00,WeatherDisplay:10.37,2013-11-03 12:02:00,
2013-11-03 06:07:00,41.1,38.4,30.21,North,9,0.0,0.0,90,0.00,,,0.00,WeatherDisplay:10.37,2013-11-03 12:07:00,
2013-11-03 06:12:00,41.1,38.4,30.21,North,9,0.0,0.0,90,0.00,CLR,,0.00,WeatherDisplay:10.37,2013-11-03 12:12:00,
2013-11-03 06:17:00,41.1,38.4,30.21,North,9,0.0,0.0,90,0.00,CLR,,0.00,WeatherDisplay:10.37,2013-11-03 12:17:00,
2013-11-03 06:22:00,41.0,38.3,30.21,North,9,0.0,0.0,90,0.00,CLR,,0.00,WeatherDisplay:10.37,2013-11-03 12:22:00,
2013-11-03 06:27:00,41.0,38.6,30.21,North,9,0.0,0.0,91,0.00,CLR,,0.00,WeatherDisplay:10.37,2013-11-03 12:27:00,
2013-11-03 06:32:00,41.0,38.6,30.21,North,9,0.0,0.0,91,0.00,CLR,,0.00,WeatherDisplay:10.37,2013-11-03 12:32:00,
2013-11-03 06:37:00,40.9,38.5,30.21,North,9,0.0,0.0,91,0.00,CLR,,0.00,WeatherDisplay:10.37,2013-11-03 12:37:00,
2013-11-03 06:42:00,40.8,38.4,30.21,North,9,0.0,0.0,91,0.00,CLR,,0.00,WeatherDisplay:10.37,2013-11-03 12:42:00,
2013-11-03 06:47:00,40.6,37.9,30.21,North,9,0.0,0.0,90,0.00,CLR,,0.00,WeatherDisplay:10.37,2013-11-03 12:47:00,
2013-11-03 06:52:00,40.5,37.8,30.21,North,5,0.0,0.0,90,0.00,CLR,,0.00,WeatherDisplay:10.37,2013-11-03 12:52:00,
2013-11-03 06:58:00,40.5,37.8,30.21,North,5,0.0,0.0,90,0.00,CLR,,0.00,WeatherDisplay:10.37,2013-11-03 12:58:00,
2013-11-03 07:03:00,40.5,37.8,30.21,North,5,0.0,0.0,90,0.00,CLR,,0.00,WeatherDisplay:10.37,2013-11-03 13:03:00,
2013-11-03 07:08:00,40.5,38.1,30.21,North,5,0.0,0.0,91,0.00,CLR,,0.00,WeatherDisplay:10.37,2013-11-03 13:08:00,
2013-11-03 07:13:00,40.5,38.1,30.21,North,5,0.0,0.0,91,0.00,CLR,,0.00,WeatherDisplay:10.37,2013-11-03 13:13:00,
2013-11-03 07:18:00,40.6,38.2,30.21,North,5,0.0,0.0,91,0.00,CLR,,0.00,WeatherDisplay:10.37,2013-11-03 13:18:00,
2013-11-03 07:23:00,40.7,38.3,30.22,North,5,0.0,0.0,91,0.00,CLR,,0.00,WeatherDisplay:10.37,2013-11-03 13:23:00,
2013-11-03 07:28:00,40.9,38.5,30.22,North,5,0.0,0.0,91,0.00,CLR,,0.00,WeatherDisplay:10.37,2013-11-03 13:28:00,
2013-11-03 07:33:00,41.3,38.9,30.22,North,5,0.0,0.0,91,0.00,CLR,,0.00,WeatherDisplay:10.37,2013-11-03 13:33:00,
2013-11-03 07:38:00,41.8,39.4,30.22,North,5,0.0,0.0,91,0.00,CLR,,0.00,WeatherDisplay:10.37,2013-11-03 13:38:00,
2013-11-03 07:43:00,42.7,40.3,30.22,North,5,0.0,0.0,91,0.00,CLR,,0.00,WeatherDisplay:10.37,2013-11-03 13:43:00,
2013-11-03 07:48:00,43.6,41.1,30.22,North,5,0.0,0.0,91,0.00,CLR,,0.00,WeatherDisplay:10.37,2013-11-03 13:48:00,
2013-11-03 07:53:00,44.3,41.8,30.22,North,5,0.0,0.0,91,0.00,CLR,,0.00,WeatherDisplay:10.37,2013-11-03 13:53:00,
2013-11-03 07:58:00,45.0,42.5,30.22,North,5,0.0,0.0,91,0.00,CLR,,0.00,WeatherDisplay:10.37,2013-11-03 13:58:00,
2013-11-03 08:03:00,45.8,43.3,30.22,North,5,0.0,0.0,91,0.00,CLR,,0.00,WeatherDisplay:10.37,2013-11-03 14:03:00,
2013-11-03 08:08:00,46.8,44.3,30.22,North,5,0.0,0.0,91,0.00,CLR,,0.00,WeatherDisplay:10.37,2013-11-03 14:08:00,
2013-11-03 08:13:00,47.9,45.4,30.22,North,5,0.0,0.0,91,0.00,CLR,,0.00,WeatherDisplay:10.37,2013-11-03 14:13:00,
2013-11-03 08:18:00,49.1,46.3,30.22,North,9,0.0,0.0,90,0.00,CLR,,0.00,WeatherDisplay:10.37,2013-11-03 14:18:00,
2013-11-03 08:23:00,50.0,46.3,30.22,NNE,22,0.0,0.0,87,0.00,CLR,,0.00,WeatherDisplay:10.37,2013-11-03 14:23:00,
2013-11-03 08:28:00,51.0,46.6,30.22,NNE,28,0.0,0.0,85,0.00,CLR,,0.00,WeatherDisplay:10.37,2013-11-03 14:28:00,
2013-11-03 08:33:00,51.7,46.7,30.22,ENE,76,3.0,3.0,83,0.00,CLR,,0.00,WeatherDisplay:10.37,2013-11-03 14:33:00,
2013-11-03 08:38:00,52.2,45.9,30.22,ESE,122,1.1,0.0,79,0.00,CLR,,0.00,WeatherDisplay:10.37,2013-11-03 14:38:00,
2013-11-03 08:43:00,52.8,45.8,30.22,SSE,158,4.0,4.0,77,0.00,CLR,,0.00,WeatherDisplay:10.37,2013-11-03 14:43:00,
2013-11-03 08:48:00,53.2,45.5,30.22,SSE,148,4.6,4.6,75,0.00,CLR,,0.00,WeatherDisplay:10.37,2013-11-03 14:48:00,
2013-11-03 08:53:00,53.7,45.2,30.22,SE,142,6.9,6.9,73,0.00,CLR,,0.00,WeatherDisplay:10.37,2013-11-03 14:53:00,
2013-11-03 08:58:00,54.0,45.2,30.22,SE,146,8.1,8.1,72,0.00,CLR,,0.00,WeatherDisplay:10.37,2013-11-03 14:58:00,
2013-11-03 09:03:00,54.3,44.7,30.22,SSE,155,10.4,10.4,70,0.00,CLR,,0.00,WeatherDisplay:10.37,2013-11-03 15:03:00,
2013-11-03 09:08:00,54.8,45.2,30.22,SSE,151,5.8,5.8,70,0.00,CLR,,0.00,WeatherDisplay:10.37,2013-11-03 15:08:00,
2013-11-03 09:13:00,55.1,45.1,30.22,SE,142,11.5,11.5,69,0.00,CLR,,0.00,WeatherDisplay:10.37,2013-11-03 15:13:00,
2013-11-03 09:18:00,55.6,45.6,30.22,SSE,150,6.9,6.9,69,0.00,CLR,,0.00,WeatherDisplay:10.37,2013-11-03 15:18:00,
2013-11-03 09:23:00,56.0,45.6,30.22,SSE,155,7.0,7.0,68,0.00,CLR,,0.00,WeatherDisplay:10.37,2013-11-03 15:23:00,
2013-11-03 09:28:00,56.4,45.6,30.22,SE,143,6.9,6.9,67,0.00,CLR,,0.00,WeatherDisplay:10.37,2013-11-03 15:28:00,
2013-11-03 09:33:00,56.5,44.9,30.22,SE,144,11.5,11.5,65,0.00,CLR,,0.00,WeatherDisplay:10.37,2013-11-03 15:33:00,
2013-11-03 09:38:00,56.7,45.5,30.22,SSE,163,9.2,9.2,66,0.00,CLR,,0.00,WeatherDisplay:10.37,2013-11-03 15:38:00,
2013-11-03 09:43:00,57.2,45.9,30.21,SSE,148,10.4,10.4,66,0.00,CLR,,0.00,WeatherDisplay:10.37,2013-11-03 15:43:00,
2013-11-03 09:48:00,57.6,45.5,30.21,SE,144,10.4,10.4,64,0.00,CLR,,0.00,WeatherDisplay:10.37,2013-11-03 15:48:00,
2013-11-03 09:53:00,57.7,45.6,30.21,SSE,163,8.1,8.1,64,0.00,CLR,,0.00,WeatherDisplay:10.37,2013-11-03 15:53:00,
2013-11-03 09:58:00,58.2,46.5,30.21,SE,130,6.9,6.9,65,0.00,CLR,,0.00,WeatherDisplay:10.37,2013-11-03 15:58:00,
2013-11-03 10:03:00,58.6,46.0,30.21,SSE,149,8.1,8.1,63,0.00,CLR,,0.00,WeatherDisplay:10.37,2013-11-03 16:03:00,
2013-11-03 10:08:00,59.0,47.2,30.21,SSE,153,6.9,6.9,65,0.00,CLR,,0.00,WeatherDisplay:10.37,2013-11-03 16:08:00,
2013-11-03 10:13:00,59.0,46.4,30.21,SSE,150,6.0,6.0,63,0.00,CLR,,0.00,WeatherDisplay:10.37,2013-11-03 16:13:00,
2013-11-03 10:18:00,59.2,46.2,30.20,SSE,158,9.0,9.0,62,0.00,CLR,,0.00,WeatherDisplay:10.37,2013-11-03 16:18:00,
2013-11-03 10:23:00,59.4,46.4,30.20,SSE,159,11.5,11.5,62,0.00,CLR,,0.00,WeatherDisplay:10.37,2013-11-03 16:23:00,
2013-11-03 10:28:00,59.6,46.6,30.20,South,169,11.5,11.5,62,0.00,CLR,,0.00,WeatherDisplay:10.37,2013-11-03 16:28:00,
2013-11-03 10:33:00,60.1,46.6,30.20,SE,137,10.4,10.4,61,0.00,CLR,,0.00,WeatherDisplay:10.37,2013-11-03 16:33:00,
2013-11-03 10:38:00,60.0,45.2,30.20,SSE,157,12.7,12.7,58,0.00,CLR,,0.00,WeatherDisplay:10.37,2013-11-03 16:38:00,
2013-11-03 10:43:00,60.1,46.2,30.20,SSE,153,12.7,12.7,60,0.00,CLR,,0.00,WeatherDisplay:10.37,2013-11-03 16:43:00,
2013-11-03 10:48:00,60.0,45.6,30.19,SSE,150,10.4,10.4,59,0.00,CLR,,0.00,WeatherDisplay:10.37,2013-11-03 16:48:00,
2013-11-03 10:53:00,60.5,46.1,30.19,SSE,149,7.0,7.0,59,0.00,CLR,,0.00,WeatherDisplay:10.37,2013-11-03 16:53:00,
2013-11-03 10:58:00,60.4,45.5,30.19,SSE,159,16.1,16.1,58,0.00,CLR,,0.00,WeatherDisplay:10.37,2013-11-03 16:58:00,
2013-11-03 11:03:00,60.7,45.8,30.19,SSE,153,5.8,5.8,58,0.00,CLR,,0.00,WeatherDisplay:10.37,2013-11-03 17:03:00,
2013-11-03 11:08:00,61.3,45.9,30.18,SE,144,10.4,10.4,57,0.00,CLR,,0.00,WeatherDisplay:10.37,2013-11-03 17:08:00,
2013-11-03 11:13:00,61.4,45.6,30.17,SE,138,12.7,12.7,56,0.00,CLR,,0.00,WeatherDisplay:10.37,2013-11-03 17:13:00,
2013-11-03 11:18:00,61.3,44.5,30.17,SE,142,12.7,12.7,54,0.00,CLR,,0.00,WeatherDisplay:10.37,2013-11-03 17:18:00,
2013-11-03 11:23:00,61.5,45.2,30.17,SE,136,10.4,10.4,55,0.00,CLR,,0.00,WeatherDisplay:10.37,2013-11-03 17:23:00,
2013-11-03 11:28:00,61.5,44.2,30.17,SSE,161,11.5,11.5,53,0.00,CLR,,0.00,WeatherDisplay:10.37,2013-11-03 17:28:00,
2013-11-03 11:33:00,61.3,45.0,30.18,SSE,160,13.8,13.8,55,0.00,CLR,,0.00,WeatherDisplay:10.37,2013-11-03 17:33:00,
2013-11-03 11:38:00,61.5,45.2,30.17,SSE,153,11.5,11.5,55,0.00,CLR,,0.00,WeatherDisplay:10.37,2013-11-03 17:38:00,
2013-11-03 11:43:00,61.6,45.7,30.18,SSE,166,9.2,9.2,56,0.00,CLR,,0.00,WeatherDisplay:10.37,2013-11-03 17:43:00,
2013-11-03 11:48:00,61.5,46.1,30.17,SE,136,5.8,5.8,57,0.00,CLR,,0.00,WeatherDisplay:10.37,2013-11-03 17:48:00,
2013-11-03 11:53:00,61.8,44.5,30.17,SSE,157,12.7,12.7,53,0.00,CLR,,0.00,WeatherDisplay:10.37,2013-11-03 17:53:00,
2013-11-03 11:58:00,62.1,45.2,30.17,SE,142,9.2,9.2,54,0.00,CLR,,0.00,WeatherDisplay:10.37,2013-11-03 17:58:00,
2013-11-03 12:03:00,62.4,46.0,30.17,SSE,147,11.5,11.5,55,0.00,CLR,,0.00,WeatherDisplay:10.37,2013-11-03 18:03:00,
2013-11-03 12:08:00,62.7,47.2,30.16,SSE,159,5.0,5.0,57,0.00,CLR,,0.00,WeatherDisplay:10.37,2013-11-03 18:08:00,
2013-11-03 12:13:00,62.9,47.0,30.16,SSE,158,6.9,6.9,56,0.00,CLR,,0.00,WeatherDisplay:10.37,2013-11-03 18:13:00,
2013-11-03 12:18:00,62.7,47.2,30.16,South,178,11.5,11.5,57,0.00,CLR,,0.00,WeatherDisplay:10.37,2013-11-03 18:18:00,
2013-11-03 12:23:00,62.9,47.0,30.15,South,173,3.5,3.5,56,0.00,CLR,,0.00,WeatherDisplay:10.37,2013-11-03 18:23:00,
2013-11-03 12:28:00,63.6,47.6,30.15,SSE,157,12.7,12.7,56,0.00,CLR,,0.00,WeatherDisplay:10.37,2013-11-03 18:28:00,
2013-11-03 12:33:00,63.2,46.8,30.14,SSE,161,8.1,8.1,55,0.00,CLR,,0.00,WeatherDisplay:10.37,2013-11-03 18:33:00,
2013-11-03 12:38:00,63.3,47.3,30.14,SSE,168,9.2,9.2,56,0.00,CLR,,0.00,WeatherDisplay:10.37,2013-11-03 18:38:00,
2013-11-03 12:43:00,63.0,46.6,30.14,SSE,165,9.2,9.2,55,0.00,CLR,,0.00,WeatherDisplay:10.37,2013-11-03 18:43:00,
2013-11-03 12:49:00,63.0,46.6,30.14,SSE,157,12.7,12.7,55,0.00,CLR,,0.00,WeatherDisplay:10.37,2013-11-03 18:49:00,
2013-11-03 12:54:00,63.0,45.6,30.14,SSE,155,6.0,6.0,53,0.00,CLR,,0.00,WeatherDisplay:10.37,2013-11-03 18:54:00,
2013-11-03 12:59:00,63.0,46.6,30.14,SSE,163,6.0,6.0,55,0.00,CLR,,0.00,WeatherDisplay:10.37,2013-11-03 18:59:00,
2013-11-03 13:04:00,63.1,46.2,30.13,SSE,152,9.2,9.2,54,0.00,CLR,,0.00,WeatherDisplay:10.37,2013-11-03 19:04:00,
2013-11-03 13:09:00,63.1,46.7,30.12,SSE,153,11.5,11.5,55,0.00,CLR,,0.00,WeatherDisplay:10.37,2013-11-03 19:09:00,
2013-11-03 13:14:00,63.2,46.8,30.12,South,180,10.4,10.4,55,0.00,CLR,,0.00,WeatherDisplay:10.37,2013-11-03 19:14:00,
2013-11-03 13:19:00,63.4,46.9,30.12,South,172,6.9,6.9,55,0.00,CLR,,0.00,WeatherDisplay:10.37,2013-11-03 19:19:00,
2013-11-03 13:24:00,63.6,47.1,30.12,South,185,11.5,11.5,55,0.00,CLR,,0.00,WeatherDisplay:10.37,2013-11-03 19:24:00,
2013-11-03 13:29:00,63.5,45.6,30.11,SSE,162,10.4,10.4,52,0.00,CLR,,0.00,WeatherDisplay:10.37,2013-11-03 19:29:00,
2013-11-03 13:34:00,63.6,47.1,30.11,SSE,157,6.9,6.9,55,0.00,CLR,,0.00,WeatherDisplay:10.37,2013-11-03 19:34:00,
2013-11-03 13:39:00,63.8,46.3,30.11,SSE,155,5.8,5.8,53,0.00,CLR,,0.00,WeatherDisplay:10.37,2013-11-03 19:39:00,
2013-11-03 13:44:00,64.1,47.6,30.11,SSE,165,9.2,9.2,55,0.00,CLR,,0.00,WeatherDisplay:10.37,2013-11-03 19:44:00,
2013-11-03 13:49:00,64.0,47.5,30.10,South,180,9.2,9.2,55,0.00,CLR,,0.00,WeatherDisplay:10.37,2013-11-03 19:49:00,
2013-11-03 13:54:00,64.4,46.9,30.10,SSE,160,6.9,6.9,53,0.00,CLR,,0.00,WeatherDisplay:10.37,2013-11-03 19:54:00,
2013-11-03 13:59:00,64.5,47.0,30.10,SSE,162,15.0,15.0,53,0.00,CLR,,0.00,WeatherDisplay:10.37,2013-11-03 19:59:00,
2013-11-03 14:04:00,64.2,46.7,30.10,South,175,11.5,11.5,53,0.00,CLR,,0.00,WeatherDisplay:10.37,2013-11-03 20:04:00,
2013-11-03 14:09:00,64.3,45.8,30.10,SE,144,9.2,9.2,51,0.00,CLR,,0.00,WeatherDisplay:10.37,2013-11-03 20:09:00,
2013-11-03 14:14:00,64.5,47.0,30.10,South,175,9.2,9.2,53,0.00,CLR,,0.00,WeatherDisplay:10.37,2013-11-03 20:14:00,
2013-11-03 14:19:00,64.6,46.6,30.10,SSE,154,5.8,5.8,52,0.00,CLR,,0.00,WeatherDisplay:10.37,2013-11-03 20:19:00,
2013-11-03 14:24:00,65.0,47.9,30.09,SSE,156,4.6,4.6,54,0.00,CLR,,0.00,WeatherDisplay:10.37,2013-11-03 20:24:00,
2013-11-03 14:29:00,65.0,46.9,30.09,SE,146,11.5,11.5,52,0.00,CLR,,0.00,WeatherDisplay:10.37,2013-11-03 20:29:00,
2013-11-03 14:34:00,64.9,47.4,30.09,South,180,11.5,11.5,53,0.00,CLR,,0.00,WeatherDisplay:10.37,2013-11-03 20:34:00,
2013-11-03 14:39:00,65.3,46.7,30.10,SSE,148,6.9,6.9,51,0.00,CLR,,0.00,WeatherDisplay:10.37,2013-11-03 20:39:00,
2013-11-03 14:44:00,65.3,46.2,30.09,SSE,161,6.9,6.9,50,0.00,CLR,,0.00,WeatherDisplay:10.37,2013-11-03 20:44:00,
2013-11-03 14:49:00,65.1,46.5,30.09,South,171,6.9,6.9,51,0.00,CLR,,0.00,WeatherDisplay:10.37,2013-11-03 20:49:00,
2013-11-03 14:54:00,65.0,46.9,30.09,SSE,161,11.5,11.5,52,0.00,CLR,,0.00,WeatherDisplay:10.37,2013-11-03 20:54:00,
2013-11-03 14:59:00,65.1,46.0,30.09,SSE,153,14.0,14.0,50,0.00,CLR,,0.00,WeatherDisplay:10.37,2013-11-03 20:59:00,
2013-11-03 15:04:00,65.1,46.5,30.09,SSE,158,3.5,3.5,51,0.00,CLR,,0.00,WeatherDisplay:10.37,2013-11-03 21:04:00,
2013-11-03 15:09:00,65.4,46.8,30.08,SSE,161,6.9,6.9,51,0.00,CLR,,0.00,WeatherDisplay:10.37,2013-11-03 21:09:00,
2013-11-03 15:14:00,65.5,48.4,30.08,South,175,9.0,9.0,54,0.00,CLR,,0.00,WeatherDisplay:10.37,2013-11-03 21:14:00,
2013-11-03 15:19:00,65.1,47.5,30.08,South,169,12.7,12.7,53,0.00,CLR,,0.00,WeatherDisplay:10.37,2013-11-03 21:19:00,
2013-11-03 15:24:00,65.1,46.5,30.08,South,178,10.0,10.0,51,0.00,CLR,,0.00,WeatherDisplay:10.37,2013-11-03 21:24:00,
2013-11-03 15:29:00,65.0,48.4,30.08,South,169,11.5,11.5,55,0.00,CLR,,0.00,WeatherDisplay:10.37,2013-11-03 21:29:00,
2013-11-03 15:34:00,65.1,47.0,30.08,South,175,8.1,8.1,52,0.00,CLR,,0.00,WeatherDisplay:10.37,2013-11-03 21:34:00,
2013-11-03 15:39:00,64.9,46.3,30.08,South,169,2.3,2.3,51,0.00,CLR,,0.00,WeatherDisplay:10.37,2013-11-03 21:39:00,
2013-11-03 15:44:00,64.5,46.0,30.08,SSE,155,11.5,11.5,51,0.00,CLR,,0.00,WeatherDisplay:10.37,2013-11-03 21:44:00,
2013-11-03 15:49:00,64.2,46.2,30.08,SSE,155,6.0,6.0,52,0.00,CLR,,0.00,WeatherDisplay:10.37,2013-11-03 21:49:00,
2013-11-03 15:54:00,64.2,46.7,30.08,SSE,154,4.6,4.6,53,0.00,CLR,,0.00,WeatherDisplay:10.37,2013-11-03 21:54:00,
2013-11-03 15:59:00,64.1,46.1,30.08,SSE,153,6.9,6.9,52,0.00,CLR,,0.00,WeatherDisplay:10.37,2013-11-03 21:59:00,
2013-11-03 16:04:00,64.1,46.6,30.07,SSE,150,4.6,4.6,53,0.00,CLR,,0.00,WeatherDisplay:10.37,2013-11-03 22:04:00,
2013-11-03 16:09:00,64.0,46.5,30.07,SSE,149,3.5,3.5,53,0.00,CLR,,0.00,WeatherDisplay:10.37,2013-11-03 22:09:00,
2013-11-03 16:14:00,63.9,46.9,30.08,SSE,150,3.5,3.5,54,0.00,CLR,,0.00,WeatherDisplay:10.37,2013-11-03 22:14:00,
2013-11-03 16:20:00,63.8,46.3,30.08,SSE,150,6.9,6.9,53,0.00,CLR,,0.00,WeatherDisplay:10.37,2013-11-03 22:20:00,
2013-11-03 16:25:00,63.7,47.7,30.08,SSE,150,0.0,0.0,56,0.00,CLR,,0.00,WeatherDisplay:10.37,2013-11-03 22:25:00,
2013-11-03 16:30:00,63.6,47.1,30.08,SSE,147,3.0,3.0,55,0.00,CLR,,0.00,WeatherDisplay:10.37,2013-11-03 22:30:00,
2013-11-03 16:35:00,63.7,47.7,30.08,SSE,148,10.4,10.4,56,0.00,CLR,,0.00,WeatherDisplay:10.37,2013-11-03 22:35:00,
2013-11-03 16:40:00,63.6,47.6,30.07,SSE,148,3.5,3.5,56,0.00,CLR,,0.00,WeatherDisplay:10.37,2013-11-03 22:40:00,
2013-11-03 16:45:00,63.5,48.0,30.07,SSE,148,0.0,0.0,57,0.00,CLR,,0.00,WeatherDisplay:10.37,2013-11-03 22:45:00,
2013-11-03 16:50:00,63.3,47.8,30.07,SSE,148,2.3,0.0,57,0.00,CLR,,0.00,WeatherDisplay:10.37,2013-11-03 22:50:00,
2013-11-03 16:55:00,63.1,48.1,30.08,SSE,148,4.0,4.0,58,0.00,CLR,,0.00,WeatherDisplay:10.37,2013-11-03 22:55:00,
2013-11-03 17:00:00,62.8,47.8,30.07,SSE,148,2.3,2.3,58,0.00,CLR,,0.00,WeatherDisplay:10.37,2013-11-03 23:00:00,
2013-11-03 17:05:00,62.6,47.6,30.08,SSE,148,2.3,2.3,58,0.00,CLR,,0.00,WeatherDisplay:10.37,2013-11-03 23:05:00,
2013-11-03 17:10:00,62.4,47.9,30.07,SSE,148,0.0,0.0,59,0.00,CLR,,0.00,WeatherDisplay:10.37,2013-11-03 23:10:00,
2013-11-03 17:15:00,62.1,47.6,30.07,SSE,148,0.0,0.0,59,0.00,CLR,,0.00,WeatherDisplay:10.37,2013-11-03 23:15:00,
2013-11-03 17:20:00,61.9,47.4,30.07,SSE,148,0.0,0.0,59,0.00,CLR,,0.00,WeatherDisplay:10.37,2013-11-03 23:20:00,
2013-11-03 17:25:00,61.6,47.1,30.07,SSE,148,2.3,0.0,59,0.00,CLR,,0.00,WeatherDisplay:10.37,2013-11-03 23:25:00,
2013-11-03 17:30:00,61.3,47.3,30.07,SSE,148,0.0,0.0,60,0.00,CLR,,0.00,WeatherDisplay:10.37,2013-11-03 23:30:00,
2013-11-03 17:35:00,61.0,47.0,30.06,SSE,148,3.5,3.5,60,0.00,CLR,,0.00,WeatherDisplay:10.37,2013-11-03 23:35:00,
2013-11-03 17:40:00,60.8,46.8,30.07,SSE,148,0.0,0.0,60,0.00,CLR,,0.00,WeatherDisplay:10.37,2013-11-03 23:40:00,
2013-11-03 17:45:00,60.7,47.2,30.07,SSE,148,6.9,0.0,61,0.00,CLR,,0.00,WeatherDisplay:10.37,2013-11-03 23:45:00,
2013-11-03 17:50:00,60.6,47.1,30.07,SSE,148,2.3,2.3,61,0.00,CLR,,0.00,WeatherDisplay:10.37,2013-11-03 23:50:00,
2013-11-03 17:55:00,60.4,47.3,30.07,SSE,148,0.0,0.0,62,0.00,CLR,,0.00,WeatherDisplay:10.37,2013-11-03 23:55:00,
2013-11-03 18:00:00,60.3,47.2,30.07,SSE,148,3.5,3.5,62,0.00,,,0.00,WeatherDisplay:10.37,2013-11-04 00:00:00,
2013-11-03 18:05:00,60.1,47.5,30.07,SSE,148,0.0,0.0,63,0.00,,,0.00,WeatherDisplay:10.37,2013-11-04 00:05:00,
2013-11-03 18:10:00,59.9,47.3,30.07,SSE,148,0.0,0.0,63,0.00,,,0.00,WeatherDisplay:10.37,2013-11-04 00:10:00,
2013-11-03 18:15:00,59.7,47.5,30.07,SSE,148,0.0,0.0,64,0.00,,,0.00,WeatherDisplay:10.37,2013-11-04 00:15:00,
2013-11-03 18:20:00,59.5,47.3,30.08,SSE,148,0.0,0.0,64,0.00,,,0.00,WeatherDisplay:10.37,2013-11-04 00:20:00,
2013-11-03 18:25:00,59.1,47.3,30.07,SSE,148,0.0,0.0,65,0.00,,,0.00,WeatherDisplay:10.37,2013-11-04 00:25:00,
2013-11-03 18:30:00,59.0,47.2,30.07,SSE,148,0.0,0.0,65,0.00,,,0.00,WeatherDisplay:10.37,2013-11-04 00:30:00,
2013-11-03 18:35:00,59.0,47.2,30.08,SSE,148,0.0,0.0,65,0.00,,,0.00,WeatherDisplay:10.37,2013-11-04 00:35:00,
2013-11-03 18:40:00,58.6,47.3,30.08,SSE,148,1.1,0.0,66,0.00,,,0.00,WeatherDisplay:10.37,2013-11-04 00:40:00,
2013-11-03 18:45:00,58.5,47.6,30.08,SSE,148,0.0,0.0,67,0.00,,,0.00,WeatherDisplay:10.37,2013-11-04 00:45:00,
2013-11-03 18:50:00,58.3,47.8,30.09,SSE,148,0.0,0.0,68,0.00,,,0.00,WeatherDisplay:10.37,2013-11-04 00:50:00,
2013-11-03 18:55:00,58.2,47.7,30.08,SSE,148,2.3,0.0,68,0.00,,,0.00,WeatherDisplay:10.37,2013-11-04 00:55:00,
2013-11-03 19:00:00,57.9,47.4,30.08,SSE,148,0.0,0.0,68,0.00,,,0.00,WeatherDisplay:10.37,2013-11-04 01:00:00,
2013-11-03 19:05:00,57.7,47.6,30.08,SSE,148,0.0,0.0,69,0.00,,,0.00,WeatherDisplay:10.37,2013-11-04 01:05:00,
2013-11-03 19:10:00,57.6,47.5,30.08,SSE,148,0.0,0.0,69,0.00,,,0.00,WeatherDisplay:10.37,2013-11-04 01:10:00,
2013-11-03 19:15:00,57.6,47.5,30.09,SSE,148,0.0,0.0,69,0.00,,,0.00,WeatherDisplay:10.37,2013-11-04 01:15:00,
2013-11-03 19:20:00,57.6,47.9,30.08,SSE,148,0.0,0.0,70,0.00,,,0.00,WeatherDisplay:10.37,2013-11-04 01:20:00,
2013-11-03 19:25:00,57.7,48.0,30.09,SSE,148,1.1,0.0,70,0.00,,,0.00,WeatherDisplay:10.37,2013-11-04 01:25:00,
2013-11-03 19:30:00,57.7,48.0,30.09,SSE,148,0.0,0.0,70,0.00,,,0.00,WeatherDisplay:10.37,2013-11-04 01:30:00,
2013-11-03 19:35:00,57.7,48.0,30.09,SSE,148,0.0,0.0,70,0.00,,,0.00,WeatherDisplay:10.37,2013-11-04 01:35:00,
2013-11-03 19:40:00,57.7,48.4,30.09,SSE,148,0.0,0.0,71,0.00,,,0.00,WeatherDisplay:10.37,2013-11-04 01:40:00,
2013-11-03 19:45:00,57.8,48.5,30.09,SSE,148,0.0,0.0,71,0.00,,,0.00,WeatherDisplay:10.37,2013-11-04 01:45:00,
2013-11-03 19:50:00,57.7,48.4,30.09,SSE,148,0.0,0.0,71,0.00,CLR,,0.00,WeatherDisplay:10.37,2013-11-04 01:50:00,
2013-11-03 19:55:00,57.6,48.3,30.09,SSE,148,0.0,0.0,71,0.00,,,0.00,WeatherDisplay:10.37,2013-11-04 01:55:00,
2013-11-03 20:00:00,57.6,48.6,30.09,SSE,148,3.5,3.5,72,0.00,,,0.00,WeatherDisplay:10.37,2013-11-04 02:00:00,
2013-11-03 20:05:00,57.6,48.6,30.09,SSE,148,0.0,0.0,72,0.00,,,0.00,WeatherDisplay:10.37,2013-11-04 02:05:00,
2013-11-03 20:10:00,57.5,48.5,30.09,SSE,148,0.0,0.0,72,0.00,,,0.00,WeatherDisplay:10.37,2013-11-04 02:10:00,
2013-11-03 20:15:00,57.4,48.4,30.09,SSE,148,0.0,0.0,72,0.00,,,0.00,WeatherDisplay:10.37,2013-11-04 02:15:00,
2013-11-03 20:20:00,57.4,48.4,30.09,SSE,148,1.1,1.1,72,0.00,,,0.00,WeatherDisplay:10.37,2013-11-04 02:20:00,
2013-11-03 20:25:00,57.5,48.5,30.10,SSE,148,3.5,3.5,72,0.00,,,0.00,WeatherDisplay:10.37,2013-11-04 02:25:00,
2013-11-03 20:30:00,57.6,48.6,30.10,SSE,147,3.5,3.5,72,0.00,,,0.00,WeatherDisplay:10.37,2013-11-04 02:30:00,
2013-11-03 20:35:00,57.6,48.6,30.09,SSE,147,2.3,2.3,72,0.00,,,0.00,WeatherDisplay:10.37,2013-11-04 02:35:00,
2013-11-03 20:40:00,57.5,48.5,30.09,SSE,148,0.0,0.0,72,0.00,,,0.00,WeatherDisplay:10.37,2013-11-04 02:40:00,
2013-11-03 20:45:00,57.6,48.6,30.10,SSE,148,0.0,0.0,72,0.00,,,0.00,WeatherDisplay:10.37,2013-11-04 02:45:00,
2013-11-03 20:50:00,57.6,48.6,30.09,SSE,147,2.3,2.3,72,0.00,,,0.00,WeatherDisplay:10.37,2013-11-04 02:50:00,
2013-11-03 20:55:00,57.6,48.6,30.09,SSE,147,3.5,3.5,72,0.00,,,0.00,WeatherDisplay:10.37,2013-11-04 02:55:00,
2013-11-03 21:00:00,57.4,48.4,30.09,SSE,147,3.5,3.5,72,0.00,,,0.00,WeatherDisplay:10.37,2013-11-04 03:00:00,
2013-11-03 21:05:00,57.4,48.8,30.08,SSE,147,1.1,0.0,73,0.00,,,0.00,WeatherDisplay:10.37,2013-11-04 03:05:00,
2013-11-03 21:10:00,57.3,48.7,30.08,SSE,147,3.5,3.5,73,0.00,,,0.00,WeatherDisplay:10.37,2013-11-04 03:10:00,
2013-11-03 21:15:00,57.3,49.1,30.09,SSE,147,5.8,5.8,74,0.00,,,0.00,WeatherDisplay:10.37,2013-11-04 03:15:00,
2013-11-03 21:20:00,57.3,49.1,30.08,SSE,148,3.5,3.5,74,0.00,,,0.00,WeatherDisplay:10.37,2013-11-04 03:20:00,
2013-11-03 21:25:00,57.3,49.4,30.08,SSE,148,4.0,4.0,75,0.00,,,0.00,WeatherDisplay:10.37,2013-11-04 03:25:00,
2013-11-03 21:30:00,57.2,49.3,30.07,SSE,148,3.5,3.5,75,0.00,,,0.00,WeatherDisplay:10.37,2013-11-04 03:30:00,
2013-11-03 21:35:00,57.2,49.0,30.06,SSE,148,4.6,4.6,74,0.00,,,0.00,WeatherDisplay:10.37,2013-11-04 03:35:00,
2013-11-03 21:40:00,57.2,49.3,30.07,SSE,152,7.0,7.0,75,0.00,,,0.00,WeatherDisplay:10.37,2013-11-04 03:40:00,
2013-11-03 21:45:00,57.4,49.5,30.06,SSE,150,9.2,9.2,75,0.00,,,0.00,WeatherDisplay:10.37,2013-11-04 03:45:00,
2013-11-03 21:50:00,57.6,49.4,30.06,SSE,149,9.2,9.2,74,0.00,,,0.00,WeatherDisplay:10.37,2013-11-04 03:50:00,
2013-11-03 21:55:00,57.8,49.9,30.06,SSE,153,4.6,4.6,75,0.00,,,0.00,WeatherDisplay:10.37,2013-11-04 03:55:00,
2013-11-03 22:00:00,57.8,49.6,30.06,SSE,150,5.8,5.8,74,0.00,,,0.00,WeatherDisplay:10.37,2013-11-04 04:00:00,
2013-11-03 22:05:00,57.9,50.0,30.06,SSE,153,8.1,8.1,75,0.00,,,0.00,WeatherDisplay:10.37,2013-11-04 04:05:00,
2013-11-03 22:10:00,58.0,49.8,30.06,SSE,153,9.2,9.2,74,0.00,,,0.00,WeatherDisplay:10.37,2013-11-04 04:10:00,
2013-11-03 22:15:00,58.2,50.3,30.06,SSE,153,10.4,10.4,75,0.00,,,0.00,WeatherDisplay:10.37,2013-11-04 04:15:00,
2013-11-03 22:20:00,58.4,50.5,30.05,SSE,151,11.5,11.5,75,0.00,,,0.00,WeatherDisplay:10.37,2013-11-04 04:20:00,
2013-11-03 22:25:00,58.7,50.8,30.05,SSE,163,10.4,10.4,75,0.00,,,0.00,WeatherDisplay:10.37,2013-11-04 04:25:00,
2013-11-03 22:30:00,58.7,50.4,30.05,SSE,164,17.3,17.3,74,0.00,,,0.00,WeatherDisplay:10.37,2013-11-04 04:30:00,
2013-11-03 22:36:00,58.7,50.4,30.04,SSE,155,11.5,11.5,74,0.00,,,0.00,WeatherDisplay:10.37,2013-11-04 04:36:00,
2013-11-03 22:41:00,58.7,50.8,30.05,SSE,153,12.7,12.7,75,0.00,,,0.00,WeatherDisplay:10.37,2013-11-04 04:41:00,
2013-11-03 22:46:00,58.7,50.8,30.04,SSE,151,13.8,13.8,75,0.00,,,0.00,WeatherDisplay:10.37,2013-11-04 04:46:00,
2013-11-03 22:51:00,58.6,50.7,30.04,SSE,155,12.0,12.0,75,0.00,,,0.00,WeatherDisplay:10.37,2013-11-04 04:51:00,
2013-11-03 22:56:00,58.5,50.6,30.03,SSE,163,17.3,17.3,75,0.00,,,0.00,WeatherDisplay:10.37,2013-11-04 04:56:00,
2013-11-03 23:01:00,58.5,50.6,30.03,SSE,152,12.7,12.7,75,0.00,,,0.00,WeatherDisplay:10.37,2013-11-04 05:01:00,
2013-11-03 23:03:00,58.5,50.6,30.03,SSE,159,11.5,11.5,75,0.00,,,0.00,WeatherDisplay:10.37,2013-11-04 05:03:00,
2013-11-03 23:09:00,58.4,50.5,30.02,South,169,15.0,15.0,75,0.00,,,0.00,WeatherDisplay:10.37,2013-11-04 05:09:00,
2013-11-03 23:14:00,58.3,50.4,30.02,SSE,163,14.0,14.0,75,0.00,,,0.00,WeatherDisplay:10.37,2013-11-04 05:14:00,
2013-11-03 23:19:00,58.3,50.8,30.02,SSE,155,15.0,15.0,76,0.00,,,0.00,WeatherDisplay:10.37,2013-11-04 05:19:00,
2013-11-03 23:24:00,58.2,50.3,30.02,SE,142,11.5,11.5,75,0.00,,,0.00,WeatherDisplay:10.37,2013-11-04 05:24:00,
2013-11-03 23:29:00,58.2,50.3,30.02,SSE,162,15.0,15.0,75,0.00,,,0.00,WeatherDisplay:10.37,2013-11-04 05:29:00,
2013-11-03 23:34:00,58.2,50.3,30.02,SSE,152,19.6,19.6,75,0.00,,,0.00,WeatherDisplay:10.37,2013-11-04 05:34:00,
2013-11-03 23:39:00,58.2,50.3,30.02,SSE,161,12.0,12.0,75,0.00,,,0.00,WeatherDisplay:10.37,2013-11-04 05:39:00,
2013-11-03 23:44:00,58.1,50.2,30.02,SSE,149,13.8,13.8,75,0.00,,,0.00,WeatherDisplay:10.37,2013-11-04 05:44:00,
2013-11-03 23:49:00,58.0,49.8,30.02,SSE,148,11.5,11.5,74,0.00,,,0.00,WeatherDisplay:10.37,2013-11-04 05:49:00,
2013-11-03 23:54:00,58.0,50.1,30.03,SSE,149,17.3,17.3,75,0.00,,,0.00,WeatherDisplay:10.37,2013-11-04 05:54:00,
2013-11-03 23:59:00,58.0,50.1,30.03,SSE,159,18.4,18.4,75,0.00,,,0.00,WeatherDisplay:10.37,2013-11-04 05:59:00,